sensor_id;sensor_type;location;lat;lon;timestamp;P1;durP1;ratioP1;P2;durP2;ratioP2
9260;SDS011;4667;42.726;23.252;2023-07-09T00:00:39;6.30;;;3.83;;
9260;SDS011;4667;42.726;23.252;2023-07-09T00:03:07;5.13;;;3.80;;
9260;SDS011;4667;42.726;23.252;2023-07-09T00:05:36;7.03;;;3.70;;
9260;SDS011;4667;42.726;23.252;2023-07-09T00:08:03;5.43;;;4.03;;
9260;SDS011;4667;42.726;23.252;2023-07-09T00:10:30;7.80;;;3.93;;
9260;SDS011;4667;42.726;23.252;2023-07-09T00:12:59;5.33;;;3.67;;
9260;SDS011;4667;42.726;23.252;2023-07-09T00:15:26;9.87;;;6.13;;
9260;SDS011;4667;42.726;23.252;2023-07-09T00:17:54;9.07;;;4.00;;
9260;SDS011;4667;42.726;23.252;2023-07-09T00:20:21;7.83;;;3.87;;
9260;SDS011;4667;42.726;23.252;2023-07-09T00:22:48;9.97;;;6.57;;
9260;SDS011;4667;42.726;23.252;2023-07-09T00:25:17;13.40;;;4.13;;
9260;SDS011;4667;42.726;23.252;2023-07-09T00:27:45;7.43;;;3.70;;
9260;SDS011;4667;42.726;23.252;2023-07-09T00:30:14;4.97;;;3.40;;
9260;SDS011;4667;42.726;23.252;2023-07-09T00:32:43;5.73;;;3.17;;
9260;SDS011;4667;42.726;23.252;2023-07-09T00:35:12;6.93;;;3.87;;
9260;SDS011;4667;42.726;23.252;2023-07-09T00:37:41;5.90;;;3.70;;
9260;SDS011;4667;42.726;23.252;2023-07-09T00:40:10;3.87;;;3.13;;
9260;SDS011;4667;42.726;23.252;2023-07-09T00:42:43;6.57;;;3.40;;
9260;SDS011;4667;42.726;23.252;2023-07-09T00:45:16;10.30;;;3.50;;
9260;SDS011;4667;42.726;23.252;2023-07-09T00:47:47;4.60;;;3.30;;
9260;SDS011;4667;42.726;23.252;2023-07-09T00:50:24;8.63;;;3.30;;
9260;SDS011;4667;42.726;23.252;2023-07-09T00:53:08;7.03;;;3.93;;
9260;SDS011;4667;42.726;23.252;2023-07-09T00:55:42;7.67;;;3.53;;
9260;SDS011;4667;42.726;23.252;2023-07-09T00:58:13;5.17;;;3.60;;
9260;SDS011;4667;42.726;23.252;2023-07-09T01:00:43;4.53;;;3.10;;
9260;SDS011;4667;42.726;23.252;2023-07-09T01:03:13;4.78;;;3.30;;
9260;SDS011;4667;42.726;23.252;2023-07-09T01:05:48;8.27;;;3.93;;
9260;SDS011;4667;42.726;23.252;2023-07-09T01:08:17;7.50;;;3.53;;
9260;SDS011;4667;42.726;23.252;2023-07-09T01:10:45;4.33;;;3.30;;
9260;SDS011;4667;42.726;23.252;2023-07-09T01:13:12;6.50;;;3.25;;
9260;SDS011;4667;42.726;23.252;2023-07-09T01:15:39;5.20;;;3.30;;
9260;SDS011;4667;42.726;23.252;2023-07-09T01:18:06;7.70;;;3.30;;
9260;SDS011;4667;42.726;23.252;2023-07-09T01:20:33;5.33;;;3.50;;
9260;SDS011;4667;42.726;23.252;2023-07-09T01:23:02;17.17;;;3.77;;
9260;SDS011;4667;42.726;23.252;2023-07-09T01:25:29;8.37;;;3.10;;
9260;SDS011;4667;42.726;23.252;2023-07-09T01:27:56;7.63;;;3.63;;
9260;SDS011;4667;42.726;23.252;2023-07-09T01:30:24;3.60;;;2.97;;
9260;SDS011;4667;42.726;23.252;2023-07-09T01:32:56;8.83;;;3.60;;
9260;SDS011;4667;42.726;23.252;2023-07-09T01:35:24;5.55;;;3.20;;
9260;SDS011;4667;42.726;23.252;2023-07-09T01:37:53;6.33;;;3.60;;
9260;SDS011;4667;42.726;23.252;2023-07-09T01:40:22;4.47;;;3.73;;
9260;SDS011;4667;42.726;23.252;2023-07-09T01:42:52;7.63;;;3.60;;
9260;SDS011;4667;42.726;23.252;2023-07-09T01:45:20;6.03;;;4.00;;
9260;SDS011;4667;42.726;23.252;2023-07-09T01:47:47;5.43;;;3.57;;
9260;SDS011;4667;42.726;23.252;2023-07-09T01:50:13;6.17;;;3.93;;
9260;SDS011;4667;42.726;23.252;2023-07-09T01:52:41;5.50;;;3.53;;
9260;SDS011;4667;42.726;23.252;2023-07-09T01:55:09;5.63;;;3.50;;
9260;SDS011;4667;42.726;23.252;2023-07-09T01:57:39;4.83;;;3.30;;
9260;SDS011;4667;42.726;23.252;2023-07-09T02:00:07;4.90;;;3.50;;
9260;SDS011;4667;42.726;23.252;2023-07-09T02:02:36;4.83;;;3.43;;
9260;SDS011;4667;42.726;23.252;2023-07-09T02:05:04;5.87;;;3.63;;
9260;SDS011;4667;42.726;23.252;2023-07-09T02:07:31;6.97;;;3.73;;
9260;SDS011;4667;42.726;23.252;2023-07-09T02:09:58;9.33;;;3.60;;
9260;SDS011;4667;42.726;23.252;2023-07-09T02:12:25;4.47;;;3.50;;
9260;SDS011;4667;42.726;23.252;2023-07-09T02:14:53;4.70;;;3.42;;
9260;SDS011;4667;42.726;23.252;2023-07-09T02:17:19;6.00;;;3.47;;
9260;SDS011;4667;42.726;23.252;2023-07-09T02:19:46;5.80;;;3.20;;
9260;SDS011;4667;42.726;23.252;2023-07-09T02:22:13;4.23;;;3.33;;
9260;SDS011;4667;42.726;23.252;2023-07-09T02:24:39;5.17;;;3.90;;
9260;SDS011;4667;42.726;23.252;2023-07-09T02:27:07;7.87;;;4.23;;
9260;SDS011;4667;42.726;23.252;2023-07-09T02:29:36;4.60;;;3.60;;
9260;SDS011;4667;42.726;23.252;2023-07-09T02:32:06;6.47;;;4.23;;
9260;SDS011;4667;42.726;23.252;2023-07-09T02:34:33;6.37;;;3.83;;
9260;SDS011;4667;42.726;23.252;2023-07-09T02:37:00;8.30;;;4.20;;
9260;SDS011;4667;42.726;23.252;2023-07-09T02:39:27;17.97;;;3.97;;
9260;SDS011;4667;42.726;23.252;2023-07-09T02:41:54;5.00;;;3.67;;
9260;SDS011;4667;42.726;23.252;2023-07-09T02:44:21;6.13;;;3.77;;
9260;SDS011;4667;42.726;23.252;2023-07-09T02:46:47;4.67;;;3.30;;
9260;SDS011;4667;42.726;23.252;2023-07-09T02:49:15;7.23;;;3.63;;
9260;SDS011;4667;42.726;23.252;2023-07-09T02:51:42;7.23;;;4.17;;
9260;SDS011;4667;42.726;23.252;2023-07-09T02:54:09;5.87;;;4.40;;
9260;SDS011;4667;42.726;23.252;2023-07-09T02:56:36;6.23;;;4.00;;
9260;SDS011;4667;42.726;23.252;2023-07-09T02:59:03;7.37;;;4.07;;
9260;SDS011;4667;42.726;23.252;2023-07-09T03:01:30;6.60;;;4.53;;
9260;SDS011;4667;42.726;23.252;2023-07-09T03:03:59;5.93;;;4.17;;
9260;SDS011;4667;42.726;23.252;2023-07-09T03:06:28;4.90;;;4.20;;
9260;SDS011;4667;42.726;23.252;2023-07-09T03:08:57;8.43;;;5.20;;
9260;SDS011;4667;42.726;23.252;2023-07-09T03:11:27;8.40;;;4.90;;
9260;SDS011;4667;42.726;23.252;2023-07-09T03:13:55;6.63;;;4.70;;
9260;SDS011;4667;42.726;23.252;2023-07-09T03:16:22;7.47;;;4.03;;
9260;SDS011;4667;42.726;23.252;2023-07-09T03:18:48;8.23;;;4.53;;
9260;SDS011;4667;42.726;23.252;2023-07-09T03:21:15;5.80;;;4.30;;
9260;SDS011;4667;42.726;23.252;2023-07-09T03:23:43;9.40;;;4.90;;
9260;SDS011;4667;42.726;23.252;2023-07-09T03:26:10;9.03;;;4.67;;
9260;SDS011;4667;42.726;23.252;2023-07-09T03:28:37;6.60;;;5.23;;
9260;SDS011;4667;42.726;23.252;2023-07-09T03:31:04;9.87;;;5.20;;
9260;SDS011;4667;42.726;23.252;2023-07-09T03:33:31;8.23;;;5.03;;
9260;SDS011;4667;42.726;23.252;2023-07-09T03:35:57;5.17;;;4.47;;
9260;SDS011;4667;42.726;23.252;2023-07-09T03:38:24;8.17;;;4.87;;
9260;SDS011;4667;42.726;23.252;2023-07-09T03:40:53;8.40;;;4.73;;
9260;SDS011;4667;42.726;23.252;2023-07-09T03:43:20;5.60;;;4.57;;
9260;SDS011;4667;42.726;23.252;2023-07-09T03:45:48;8.33;;;4.97;;
9260;SDS011;4667;42.726;23.252;2023-07-09T03:48:17;7.27;;;5.60;;
9260;SDS011;4667;42.726;23.252;2023-07-09T03:50:45;8.87;;;5.60;;
9260;SDS011;4667;42.726;23.252;2023-07-09T03:53:13;6.43;;;5.07;;
9260;SDS011;4667;42.726;23.252;2023-07-09T03:55:41;6.33;;;4.50;;
9260;SDS011;4667;42.726;23.252;2023-07-09T03:58:10;8.23;;;4.87;;
9260;SDS011;4667;42.726;23.252;2023-07-09T04:00:36;7.87;;;5.23;;
9260;SDS011;4667;42.726;23.252;2023-07-09T04:03:03;8.27;;;4.87;;
9260;SDS011;4667;42.726;23.252;2023-07-09T04:05:33;9.97;;;5.00;;
9260;SDS011;4667;42.726;23.252;2023-07-09T04:08:00;6.47;;;4.07;;
9260;SDS011;4667;42.726;23.252;2023-07-09T04:10:27;8.87;;;5.57;;
9260;SDS011;4667;42.726;23.252;2023-07-09T04:12:53;8.27;;;5.30;;
9260;SDS011;4667;42.726;23.252;2023-07-09T04:15:21;8.30;;;5.13;;
9260;SDS011;4667;42.726;23.252;2023-07-09T04:17:48;10.60;;;5.43;;
9260;SDS011;4667;42.726;23.252;2023-07-09T04:20:15;10.30;;;5.60;;
9260;SDS011;4667;42.726;23.252;2023-07-09T04:22:41;8.17;;;5.43;;
9260;SDS011;4667;42.726;23.252;2023-07-09T04:25:09;6.57;;;5.27;;
9260;SDS011;4667;42.726;23.252;2023-07-09T04:27:36;12.40;;;5.80;;
9260;SDS011;4667;42.726;23.252;2023-07-09T04:30:04;7.73;;;5.03;;
9260;SDS011;4667;42.726;23.252;2023-07-09T04:32:33;9.33;;;5.13;;
9260;SDS011;4667;42.726;23.252;2023-07-09T04:35:02;6.40;;;5.40;;
9260;SDS011;4667;42.726;23.252;2023-07-09T04:37:30;9.57;;;5.40;;
9260;SDS011;4667;42.726;23.252;2023-07-09T04:39:57;9.57;;;4.87;;
9260;SDS011;4667;42.726;23.252;2023-07-09T04:42:24;8.77;;;5.10;;
9260;SDS011;4667;42.726;23.252;2023-07-09T04:44:50;7.37;;;6.30;;
9260;SDS011;4667;42.726;23.252;2023-07-09T04:47:17;10.83;;;5.63;;
9260;SDS011;4667;42.726;23.252;2023-07-09T04:49:45;8.77;;;5.47;;
9260;SDS011;4667;42.726;23.252;2023-07-09T04:52:12;9.03;;;5.23;;
9260;SDS011;4667;42.726;23.252;2023-07-09T04:54:40;7.73;;;5.70;;
9260;SDS011;4667;42.726;23.252;2023-07-09T04:57:08;9.47;;;5.47;;
9260;SDS011;4667;42.726;23.252;2023-07-09T04:59:35;8.33;;;5.17;;
9260;SDS011;4667;42.726;23.252;2023-07-09T05:02:02;7.63;;;5.50;;
9260;SDS011;4667;42.726;23.252;2023-07-09T05:04:30;7.77;;;5.20;;
9260;SDS011;4667;42.726;23.252;2023-07-09T05:06:58;7.97;;;4.93;;
9260;SDS011;4667;42.726;23.252;2023-07-09T05:09:25;7.57;;;5.33;;
9260;SDS011;4667;42.726;23.252;2023-07-09T05:11:52;8.48;;;5.25;;
9260;SDS011;4667;42.726;23.252;2023-07-09T05:14:19;11.83;;;5.67;;
9260;SDS011;4667;42.726;23.252;2023-07-09T05:16:45;12.83;;;5.37;;
9260;SDS011;4667;42.726;23.252;2023-07-09T05:19:12;9.65;;;5.72;;
9260;SDS011;4667;42.726;23.252;2023-07-09T05:21:39;11.82;;;7.80;;
9260;SDS011;4667;42.726;23.252;2023-07-09T05:24:08;9.68;;;5.40;;
9260;SDS011;4667;42.726;23.252;2023-07-09T05:26:34;10.55;;;5.70;;
9260;SDS011;4667;42.726;23.252;2023-07-09T05:29:02;9.30;;;4.95;;
9260;SDS011;4667;42.726;23.252;2023-07-09T05:31:30;10.43;;;5.03;;
9260;SDS011;4667;42.726;23.252;2023-07-09T05:33:56;8.00;;;5.15;;
9260;SDS011;4667;42.726;23.252;2023-07-09T05:36:23;11.52;;;6.20;;
9260;SDS011;4667;42.726;23.252;2023-07-09T05:38:50;9.55;;;4.85;;
9260;SDS011;4667;42.726;23.252;2023-07-09T05:41:18;10.02;;;5.68;;
9260;SDS011;4667;42.726;23.252;2023-07-09T05:43:45;8.98;;;4.95;;
9260;SDS011;4667;42.726;23.252;2023-07-09T05:46:12;8.70;;;4.13;;
9260;SDS011;4667;42.726;23.252;2023-07-09T05:48:39;9.57;;;5.25;;
9260;SDS011;4667;42.726;23.252;2023-07-09T05:51:06;9.27;;;4.28;;
9260;SDS011;4667;42.726;23.252;2023-07-09T05:53:33;9.27;;;4.35;;
9260;SDS011;4667;42.726;23.252;2023-07-09T05:56:00;5.90;;;4.13;;
9260;SDS011;4667;42.726;23.252;2023-07-09T05:58:30;7.38;;;4.30;;
9260;SDS011;4667;42.726;23.252;2023-07-09T06:00:56;7.20;;;3.97;;
9260;SDS011;4667;42.726;23.252;2023-07-09T06:03:23;10.40;;;4.15;;
9260;SDS011;4667;42.726;23.252;2023-07-09T06:05:52;6.93;;;3.80;;
9260;SDS011;4667;42.726;23.252;2023-07-09T06:08:19;7.63;;;4.47;;
9260;SDS011;4667;42.726;23.252;2023-07-09T06:10:52;9.18;;;4.65;;
9260;SDS011;4667;42.726;23.252;2023-07-09T06:13:20;6.38;;;5.07;;
9260;SDS011;4667;42.726;23.252;2023-07-09T06:15:51;6.32;;;4.07;;
9260;SDS011;4667;42.726;23.252;2023-07-09T06:18:18;9.85;;;6.68;;
9260;SDS011;4667;42.726;23.252;2023-07-09T06:20:46;9.40;;;5.32;;
9260;SDS011;4667;42.726;23.252;2023-07-09T06:23:13;8.57;;;6.63;;
9260;SDS011;4667;42.726;23.252;2023-07-09T06:25:40;6.82;;;4.65;;
9260;SDS011;4667;42.726;23.252;2023-07-09T06:28:07;8.02;;;4.05;;
9260;SDS011;4667;42.726;23.252;2023-07-09T06:30:34;6.97;;;4.43;;
9260;SDS011;4667;42.726;23.252;2023-07-09T06:33:03;7.03;;;4.10;;
9260;SDS011;4667;42.726;23.252;2023-07-09T06:35:29;6.85;;;4.05;;
9260;SDS011;4667;42.726;23.252;2023-07-09T06:37:56;9.48;;;5.38;;
9260;SDS011;4667;42.726;23.252;2023-07-09T06:40:23;9.82;;;6.57;;
9260;SDS011;4667;42.726;23.252;2023-07-09T06:42:50;7.35;;;5.10;;
9260;SDS011;4667;42.726;23.252;2023-07-09T06:45:17;9.35;;;4.82;;
9260;SDS011;4667;42.726;23.252;2023-07-09T06:47:43;10.23;;;5.40;;
9260;SDS011;4667;42.726;23.252;2023-07-09T06:50:11;11.63;;;4.80;;
9260;SDS011;4667;42.726;23.252;2023-07-09T06:52:39;7.80;;;4.65;;
9260;SDS011;4667;42.726;23.252;2023-07-09T06:55:05;6.28;;;3.88;;
9260;SDS011;4667;42.726;23.252;2023-07-09T06:57:33;6.72;;;4.25;;
9260;SDS011;4667;42.726;23.252;2023-07-09T06:59:59;7.05;;;4.43;;
9260;SDS011;4667;42.726;23.252;2023-07-09T07:02:26;7.90;;;5.45;;
9260;SDS011;4667;42.726;23.252;2023-07-09T07:04:53;11.73;;;9.88;;
9260;SDS011;4667;42.726;23.252;2023-07-09T07:07:22;9.15;;;5.47;;
9260;SDS011;4667;42.726;23.252;2023-07-09T07:09:49;10.60;;;5.63;;
9260;SDS011;4667;42.726;23.252;2023-07-09T07:12:20;4.30;;;3.85;;
9260;SDS011;4667;42.726;23.252;2023-07-09T07:14:50;9.57;;;4.80;;
9260;SDS011;4667;42.726;23.252;2023-07-09T07:17:17;7.93;;;6.30;;
9260;SDS011;4667;42.726;23.252;2023-07-09T07:19:44;10.60;;;4.15;;
9260;SDS011;4667;42.726;23.252;2023-07-09T07:22:11;10.30;;;5.68;;
9260;SDS011;4667;42.726;23.252;2023-07-09T07:24:39;7.68;;;4.00;;
9260;SDS011;4667;42.726;23.252;2023-07-09T07:27:06;11.13;;;4.50;;
9260;SDS011;4667;42.726;23.252;2023-07-09T07:29:34;4.68;;;4.03;;
9260;SDS011;4667;42.726;23.252;2023-07-09T07:32:01;6.13;;;3.55;;
9260;SDS011;4667;42.726;23.252;2023-07-09T07:34:28;4.82;;;3.80;;
9260;SDS011;4667;42.726;23.252;2023-07-09T07:36:55;7.15;;;4.45;;
9260;SDS011;4667;42.726;23.252;2023-07-09T07:39:21;9.00;;;4.72;;
9260;SDS011;4667;42.726;23.252;2023-07-09T07:41:50;6.75;;;4.53;;
9260;SDS011;4667;42.726;23.252;2023-07-09T07:44:17;6.03;;;3.42;;
9260;SDS011;4667;42.726;23.252;2023-07-09T07:46:43;9.38;;;4.30;;
9260;SDS011;4667;42.726;23.252;2023-07-09T07:49:11;6.07;;;3.78;;
9260;SDS011;4667;42.726;23.252;2023-07-09T07:51:37;5.90;;;3.67;;
9260;SDS011;4667;42.726;23.252;2023-07-09T07:54:04;7.82;;;4.90;;
9260;SDS011;4667;42.726;23.252;2023-07-09T07:56:34;10.95;;;4.63;;
9260;SDS011;4667;42.726;23.252;2023-07-09T07:59:02;6.32;;;4.20;;
9260;SDS011;4667;42.726;23.252;2023-07-09T08:01:29;8.55;;;5.28;;
9260;SDS011;4667;42.726;23.252;2023-07-09T08:03:56;7.10;;;4.45;;
9260;SDS011;4667;42.726;23.252;2023-07-09T08:06:22;6.53;;;4.00;;
9260;SDS011;4667;42.726;23.252;2023-07-09T08:08:49;6.78;;;4.57;;
9260;SDS011;4667;42.726;23.252;2023-07-09T08:11:16;8.73;;;4.05;;
9260;SDS011;4667;42.726;23.252;2023-07-09T08:13:43;5.70;;;4.10;;
9260;SDS011;4667;42.726;23.252;2023-07-09T08:16:11;8.43;;;4.57;;
9260;SDS011;4667;42.726;23.252;2023-07-09T08:18:38;6.70;;;4.22;;
9260;SDS011;4667;42.726;23.252;2023-07-09T08:21:04;6.82;;;4.28;;
9260;SDS011;4667;42.726;23.252;2023-07-09T08:23:34;6.72;;;3.92;;
9260;SDS011;4667;42.726;23.252;2023-07-09T08:26:02;5.45;;;3.63;;
9260;SDS011;4667;42.726;23.252;2023-07-09T08:28:29;7.53;;;4.00;;
9260;SDS011;4667;42.726;23.252;2023-07-09T08:30:56;5.38;;;3.83;;
9260;SDS011;4667;42.726;23.252;2023-07-09T08:33:25;6.07;;;3.75;;
9260;SDS011;4667;42.726;23.252;2023-07-09T08:35:52;5.93;;;4.03;;
9260;SDS011;4667;42.726;23.252;2023-07-09T08:38:19;6.85;;;3.80;;
9260;SDS011;4667;42.726;23.252;2023-07-09T08:40:54;6.18;;;3.85;;
9260;SDS011;4667;42.726;23.252;2023-07-09T08:43:26;4.43;;;3.60;;
9260;SDS011;4667;42.726;23.252;2023-07-09T08:46:15;7.35;;;3.92;;
9260;SDS011;4667;42.726;23.252;2023-07-09T08:48:48;6.88;;;4.00;;
9260;SDS011;4667;42.726;23.252;2023-07-09T08:51:19;6.78;;;3.97;;
9260;SDS011;4667;42.726;23.252;2023-07-09T08:53:52;10.25;;;4.03;;
9260;SDS011;4667;42.726;23.252;2023-07-09T08:56:23;4.70;;;3.33;;
9260;SDS011;4667;42.726;23.252;2023-07-09T08:58:52;8.40;;;3.47;;
9260;SDS011;4667;42.726;23.252;2023-07-09T09:01:23;3.78;;;3.28;;
9260;SDS011;4667;42.726;23.252;2023-07-09T09:03:55;6.05;;;3.92;;
9260;SDS011;4667;42.726;23.252;2023-07-09T09:06:27;7.90;;;3.72;;
9260;SDS011;4667;42.726;23.252;2023-07-09T09:08:58;5.63;;;3.90;;
9260;SDS011;4667;42.726;23.252;2023-07-09T09:11:33;8.32;;;4.30;;
9260;SDS011;4667;42.726;23.252;2023-07-09T09:14:12;6.07;;;4.18;;
9260;SDS011;4667;42.726;23.252;2023-07-09T09:16:45;6.18;;;3.42;;
9260;SDS011;4667;42.726;23.252;2023-07-09T09:19:18;5.63;;;3.65;;
9260;SDS011;4667;42.726;23.252;2023-07-09T09:21:50;4.82;;;3.45;;
9260;SDS011;4667;42.726;23.252;2023-07-09T09:24:23;5.40;;;3.40;;
9260;SDS011;4667;42.726;23.252;2023-07-09T09:26:56;6.57;;;3.30;;
9260;SDS011;4667;42.726;23.252;2023-07-09T09:29:24;5.57;;;3.92;;
9260;SDS011;4667;42.726;23.252;2023-07-09T09:31:52;6.40;;;3.15;;
9260;SDS011;4667;42.726;23.252;2023-07-09T09:34:24;8.10;;;3.80;;
9260;SDS011;4667;42.726;23.252;2023-07-09T09:36:53;5.35;;;3.60;;
9260;SDS011;4667;42.726;23.252;2023-07-09T09:39:20;6.57;;;3.78;;
9260;SDS011;4667;42.726;23.252;2023-07-09T09:41:49;7.43;;;3.75;;
9260;SDS011;4667;42.726;23.252;2023-07-09T09:44:20;10.43;;;3.70;;
9260;SDS011;4667;42.726;23.252;2023-07-09T09:46:50;5.35;;;3.70;;
9260;SDS011;4667;42.726;23.252;2023-07-09T09:49:17;6.03;;;3.30;;
9260;SDS011;4667;42.726;23.252;2023-07-09T09:51:46;6.00;;;3.10;;
9260;SDS011;4667;42.726;23.252;2023-07-09T09:54:16;4.47;;;3.35;;
9260;SDS011;4667;42.726;23.252;2023-07-09T09:56:44;7.68;;;3.47;;
9260;SDS011;4667;42.726;23.252;2023-07-09T09:59:16;4.30;;;3.60;;
9260;SDS011;4667;42.726;23.252;2023-07-09T10:01:45;3.85;;;3.30;;
9260;SDS011;4667;42.726;23.252;2023-07-09T10:04:16;5.20;;;3.72;;
9260;SDS011;4667;42.726;23.252;2023-07-09T10:06:47;7.38;;;3.35;;
9260;SDS011;4667;42.726;23.252;2023-07-09T10:09:19;4.95;;;3.40;;
9260;SDS011;4667;42.726;23.252;2023-07-09T10:11:53;4.20;;;3.38;;
9260;SDS011;4667;42.726;23.252;2023-07-09T10:14:31;4.07;;;3.47;;
9260;SDS011;4667;42.726;23.252;2023-07-09T10:17:05;6.28;;;3.28;;
9260;SDS011;4667;42.726;23.252;2023-07-09T10:19:39;5.13;;;4.10;;
9260;SDS011;4667;42.726;23.252;2023-07-09T10:22:19;4.13;;;3.72;;
9260;SDS011;4667;42.726;23.252;2023-07-09T10:24:52;7.60;;;3.78;;
9260;SDS011;4667;42.726;23.252;2023-07-09T10:27:29;3.65;;;3.30;;
9260;SDS011;4667;42.726;23.252;2023-07-09T10:30:13;4.07;;;3.50;;
9260;SDS011;4667;42.726;23.252;2023-07-09T10:32:49;4.50;;;3.35;;
9260;SDS011;4667;42.726;23.252;2023-07-09T10:35:27;5.18;;;3.50;;
9260;SDS011;4667;42.726;23.252;2023-07-09T10:40:58;4.47;;;3.60;;
9260;SDS011;4667;42.726;23.252;2023-07-09T10:43:30;5.38;;;3.47;;
9260;SDS011;4667;42.726;23.252;2023-07-09T10:46:02;5.18;;;3.42;;
9260;SDS011;4667;42.726;23.252;2023-07-09T10:48:36;3.70;;;3.30;;
9260;SDS011;4667;42.726;23.252;2023-07-09T10:51:08;6.18;;;3.60;;
9260;SDS011;4667;42.726;23.252;2023-07-09T10:53:45;4.20;;;3.42;;
9260;SDS011;4667;42.726;23.252;2023-07-09T10:56:17;4.53;;;3.17;;
9260;SDS011;4667;42.726;23.252;2023-07-09T10:58:50;3.90;;;2.88;;
9260;SDS011;4667;42.726;23.252;2023-07-09T11:01:25;3.78;;;3.35;;
9260;SDS011;4667;42.726;23.252;2023-07-09T11:03:57;4.18;;;2.70;;
9260;SDS011;4667;42.726;23.252;2023-07-09T11:06:30;5.80;;;3.45;;
9260;SDS011;4667;42.726;23.252;2023-07-09T11:09:02;5.25;;;3.45;;
9260;SDS011;4667;42.726;23.252;2023-07-09T11:11:33;7.55;;;3.65;;
9260;SDS011;4667;42.726;23.252;2023-07-09T11:14:14;4.32;;;3.33;;
9260;SDS011;4667;42.726;23.252;2023-07-09T11:16:51;7.07;;;3.42;;
9260;SDS011;4667;42.726;23.252;2023-07-09T11:19:21;4.50;;;3.30;;
9260;SDS011;4667;42.726;23.252;2023-07-09T11:22:05;6.00;;;4.53;;
9260;SDS011;4667;42.726;23.252;2023-07-09T11:24:46;4.38;;;3.25;;
9260;SDS011;4667;42.726;23.252;2023-07-09T11:27:20;4.68;;;3.28;;
9260;SDS011;4667;42.726;23.252;2023-07-09T11:29:55;4.35;;;3.40;;
9260;SDS011;4667;42.726;23.252;2023-07-09T11:32:23;3.55;;;3.05;;
9260;SDS011;4667;42.726;23.252;2023-07-09T11:34:50;5.72;;;2.97;;
9260;SDS011;4667;42.726;23.252;2023-07-09T11:37:17;4.28;;;3.10;;
9260;SDS011;4667;42.726;23.252;2023-07-09T11:39:46;3.97;;;3.42;;
9260;SDS011;4667;42.726;23.252;2023-07-09T11:42:24;6.88;;;6.18;;
9260;SDS011;4667;42.726;23.252;2023-07-09T11:45:02;5.47;;;3.33;;
9260;SDS011;4667;42.726;23.252;2023-07-09T11:47:34;3.50;;;3.20;;
9260;SDS011;4667;42.726;23.252;2023-07-09T11:50:05;3.45;;;2.97;;
9260;SDS011;4667;42.726;23.252;2023-07-09T11:52:43;4.07;;;3.05;;
9260;SDS011;4667;42.726;23.252;2023-07-09T11:55:19;5.05;;;3.53;;
9260;SDS011;4667;42.726;23.252;2023-07-09T11:57:52;4.28;;;3.25;;
9260;SDS011;4667;42.726;23.252;2023-07-09T12:00:19;4.00;;;3.10;;
9260;SDS011;4667;42.726;23.252;2023-07-09T12:02:46;3.83;;;3.15;;
9260;SDS011;4667;42.726;23.252;2023-07-09T12:05:13;4.72;;;3.50;;
9260;SDS011;4667;42.726;23.252;2023-07-09T12:07:45;3.90;;;3.22;;
9260;SDS011;4667;42.726;23.252;2023-07-09T12:10:16;5.55;;;3.03;;
9260;SDS011;4667;42.726;23.252;2023-07-09T12:12:47;5.65;;;3.10;;
9260;SDS011;4667;42.726;23.252;2023-07-09T12:15:18;4.32;;;3.08;;
9260;SDS011;4667;42.726;23.252;2023-07-09T12:17:57;6.28;;;3.20;;
9260;SDS011;4667;42.726;23.252;2023-07-09T12:20:25;3.90;;;3.50;;
9260;SDS011;4667;42.726;23.252;2023-07-09T12:22:55;3.85;;;3.13;;
9260;SDS011;4667;42.726;23.252;2023-07-09T12:25:24;4.15;;;3.00;;
9260;SDS011;4667;42.726;23.252;2023-07-09T12:27:51;7.38;;;2.88;;
9260;SDS011;4667;42.726;23.252;2023-07-09T12:30:18;6.07;;;3.22;;
9260;SDS011;4667;42.726;23.252;2023-07-09T12:32:46;4.50;;;3.00;;
9260;SDS011;4667;42.726;23.252;2023-07-09T12:35:15;3.55;;;2.85;;
9260;SDS011;4667;42.726;23.252;2023-07-09T12:37:44;5.00;;;3.00;;
9260;SDS011;4667;42.726;23.252;2023-07-09T12:40:14;4.47;;;3.10;;
9260;SDS011;4667;42.726;23.252;2023-07-09T12:42:44;4.13;;;3.70;;
9260;SDS011;4667;42.726;23.252;2023-07-09T12:45:15;5.95;;;3.00;;
9260;SDS011;4667;42.726;23.252;2023-07-09T12:47:44;5.47;;;3.25;;
9260;SDS011;4667;42.726;23.252;2023-07-09T12:50:19;4.78;;;3.50;;
9260;SDS011;4667;42.726;23.252;2023-07-09T12:52:49;4.13;;;3.15;;
9260;SDS011;4667;42.726;23.252;2023-07-09T12:55:19;5.72;;;3.45;;
9260;SDS011;4667;42.726;23.252;2023-07-09T12:57:48;5.05;;;3.08;;
9260;SDS011;4667;42.726;23.252;2023-07-09T13:00:16;5.00;;;3.17;;
9260;SDS011;4667;42.726;23.252;2023-07-09T13:02:44;6.38;;;3.08;;
9260;SDS011;4667;42.726;23.252;2023-07-09T13:05:17;5.30;;;3.00;;
9260;SDS011;4667;42.726;23.252;2023-07-09T13:07:46;4.82;;;3.35;;
9260;SDS011;4667;42.726;23.252;2023-07-09T13:10:16;3.55;;;2.90;;
9260;SDS011;4667;42.726;23.252;2023-07-09T13:12:45;6.90;;;3.08;;
9260;SDS011;4667;42.726;23.252;2023-07-09T13:15:25;3.67;;;2.90;;
9260;SDS011;4667;42.726;23.252;2023-07-09T13:17:57;4.50;;;3.20;;
9260;SDS011;4667;42.726;23.252;2023-07-09T13:20:25;4.32;;;3.30;;
9260;SDS011;4667;42.726;23.252;2023-07-09T13:22:52;4.72;;;3.22;;
9260;SDS011;4667;42.726;23.252;2023-07-09T13:25:19;3.92;;;3.22;;
9260;SDS011;4667;42.726;23.252;2023-07-09T13:27:46;6.35;;;3.80;;
9260;SDS011;4667;42.726;23.252;2023-07-09T13:30:13;3.55;;;3.25;;
9260;SDS011;4667;42.726;23.252;2023-07-09T13:32:41;6.05;;;3.20;;
9260;SDS011;4667;42.726;23.252;2023-07-09T13:35:12;4.78;;;3.33;;
9260;SDS011;4667;42.726;23.252;2023-07-09T13:37:41;3.25;;;2.85;;
9260;SDS011;4667;42.726;23.252;2023-07-09T13:40:09;5.13;;;3.28;;
9260;SDS011;4667;42.726;23.252;2023-07-09T13:42:38;6.90;;;3.70;;
9260;SDS011;4667;42.726;23.252;2023-07-09T13:45:08;7.57;;;3.40;;
9260;SDS011;4667;42.726;23.252;2023-07-09T13:47:45;6.47;;;3.13;;
9260;SDS011;4667;42.726;23.252;2023-07-09T13:50:12;4.55;;;3.20;;
9260;SDS011;4667;42.726;23.252;2023-07-09T13:52:39;5.28;;;3.38;;
9260;SDS011;4667;42.726;23.252;2023-07-09T13:55:08;6.00;;;3.28;;
9260;SDS011;4667;42.726;23.252;2023-07-09T13:57:43;5.82;;;3.58;;
9260;SDS011;4667;42.726;23.252;2023-07-09T14:00:10;5.55;;;3.40;;
9260;SDS011;4667;42.726;23.252;2023-07-09T14:02:38;4.38;;;3.35;;
9260;SDS011;4667;42.726;23.252;2023-07-09T14:05:09;5.32;;;3.38;;
9260;SDS011;4667;42.726;23.252;2023-07-09T14:07:38;7.10;;;3.42;;
9260;SDS011;4667;42.726;23.252;2023-07-09T14:10:07;6.07;;;3.33;;
9260;SDS011;4667;42.726;23.252;2023-07-09T14:12:38;4.97;;;3.30;;
9260;SDS011;4667;42.726;23.252;2023-07-09T14:15:11;3.88;;;2.85;;
9260;SDS011;4667;42.726;23.252;2023-07-09T14:17:40;4.00;;;2.95;;
9260;SDS011;4667;42.726;23.252;2023-07-09T14:20:11;4.15;;;3.00;;
9260;SDS011;4667;42.726;23.252;2023-07-09T14:22:39;9.48;;;3.40;;
9260;SDS011;4667;42.726;23.252;2023-07-09T14:25:09;4.97;;;3.15;;
9260;SDS011;4667;42.726;23.252;2023-07-09T14:27:42;4.13;;;3.10;;
9260;SDS011;4667;42.726;23.252;2023-07-09T14:30:10;3.90;;;3.13;;
9260;SDS011;4667;42.726;23.252;2023-07-09T14:32:40;3.45;;;2.90;;
9260;SDS011;4667;42.726;23.252;2023-07-09T14:35:10;4.60;;;3.42;;
9260;SDS011;4667;42.726;23.252;2023-07-09T14:37:40;6.50;;;3.05;;
9260;SDS011;4667;42.726;23.252;2023-07-09T14:40:07;8.88;;;3.83;;
9260;SDS011;4667;42.726;23.252;2023-07-09T14:42:35;3.67;;;3.13;;
9260;SDS011;4667;42.726;23.252;2023-07-09T14:45:03;6.95;;;2.55;;
9260;SDS011;4667;42.726;23.252;2023-07-09T14:47:32;6.82;;;3.30;;
9260;SDS011;4667;42.726;23.252;2023-07-09T14:50:00;6.95;;;3.10;;
9260;SDS011;4667;42.726;23.252;2023-07-09T14:52:29;4.20;;;2.90;;
9260;SDS011;4667;42.726;23.252;2023-07-09T14:54:56;4.75;;;3.15;;
9260;SDS011;4667;42.726;23.252;2023-07-09T14:57:24;4.95;;;3.13;;
9260;SDS011;4667;42.726;23.252;2023-07-09T14:59:55;4.35;;;2.92;;
9260;SDS011;4667;42.726;23.252;2023-07-09T15:02:32;4.45;;;3.13;;
9260;SDS011;4667;42.726;23.252;2023-07-09T15:05:03;5.28;;;3.25;;
9260;SDS011;4667;42.726;23.252;2023-07-09T15:07:35;3.47;;;2.72;;
9260;SDS011;4667;42.726;23.252;2023-07-09T15:10:02;5.18;;;3.20;;
9260;SDS011;4667;42.726;23.252;2023-07-09T15:12:33;5.40;;;3.10;;
9260;SDS011;4667;42.726;23.252;2023-07-09T15:15:05;4.28;;;2.90;;